createdAt,value
2022-10-18T00:02:12.459Z,10.20
2022-10-18T00:05:14.377Z,10.23
2022-10-18T00:08:17.811Z,10.13
2022-10-18T00:11:20.012Z,10.17
2022-10-18T00:14:22.167Z,10.14
2022-10-18T00:17:28.393Z,10.12
2022-10-18T00:20:30.590Z,10.21
2022-10-18T00:23:33.713Z,10.18
2022-10-18T00:26:35.887Z,10.15
2022-10-18T00:29:38.216Z,10.14
2022-10-18T00:32:41.242Z,10.03
2022-10-18T00:35:43.201Z,9.98
2022-10-18T00:38:45.885Z,9.95
2022-10-18T00:41:48.402Z,10.00
2022-10-18T00:44:50.503Z,9.98
2022-10-18T00:47:59.214Z,9.91
2022-10-18T00:51:01.267Z,9.87
2022-10-18T00:54:02.944Z,9.80
2022-10-18T00:57:06.273Z,9.90
2022-10-18T01:00:10.037Z,9.81
2022-10-18T01:03:12.040Z,9.84
2022-10-18T01:06:13.768Z,9.77
2022-10-18T01:09:30.721Z,9.75
2022-10-18T01:12:54.320Z,9.67
2022-10-18T01:16:04.622Z,9.61
2022-10-18T01:19:38.569Z,9.63
2022-10-18T01:22:45.979Z,9.57
2022-10-18T01:25:55.934Z,9.59
2022-10-18T01:28:57.740Z,9.57
2022-10-18T01:32:00.264Z,9.57
2022-10-18T01:35:14.419Z,9.54
2022-10-18T01:38:17.991Z,9.49
2022-10-18T01:41:22.795Z,9.48
2022-10-18T01:44:26.388Z,9.53
2022-10-18T01:47:28.586Z,9.59
2022-10-18T01:50:32.686Z,9.56
2022-10-18T01:53:35.408Z,9.48
2022-10-18T01:56:53.613Z,9.55
2022-10-18T02:00:05.666Z,9.51
2022-10-18T02:03:27.127Z,9.45
2022-10-18T02:06:36.368Z,9.38
2022-10-18T02:09:42.790Z,9.30
2022-10-18T02:12:45.129Z,9.28
2022-10-18T02:15:50.092Z,9.32
2022-10-18T02:18:59.612Z,9.27
2022-10-18T02:22:02.125Z,9.27
2022-10-18T02:25:08.307Z,9.24
2022-10-18T02:28:10.309Z,9.26
2022-10-18T02:31:18.821Z,9.25
2022-10-18T02:34:26.576Z,9.27
2022-10-18T02:37:33.384Z,9.25
2022-10-18T02:40:35.173Z,9.18
2022-10-18T02:43:37.165Z,9.23
2022-10-18T02:46:39.829Z,9.16
2022-10-18T02:49:41.664Z,9.19
2022-10-18T02:52:43.525Z,9.18
2022-10-18T02:55:45.370Z,9.09
2022-10-18T02:58:47.163Z,9.06
2022-10-18T03:01:49.310Z,9.09
2022-10-18T03:04:51.210Z,9.12
2022-10-18T03:07:53.079Z,9.10
2022-10-18T03:10:54.896Z,9.00
2022-10-18T03:13:56.695Z,9.00
2022-10-18T03:16:58.448Z,9.00
2022-10-18T03:20:00.231Z,8.96
2022-10-18T03:23:01.951Z,8.99
2022-10-18T03:26:04.321Z,8.98
2022-10-18T03:29:06.438Z,8.96
2022-10-18T03:32:08.243Z,8.99
2022-10-18T03:35:10.350Z,9.01
2022-10-18T03:38:12.080Z,8.99
2022-10-18T03:41:13.801Z,8.95
2022-10-18T03:44:15.559Z,8.91
2022-10-18T03:47:17.285Z,8.89
2022-10-18T03:50:18.994Z,8.85
2022-10-18T03:53:20.709Z,8.80
2022-10-18T03:56:22.405Z,8.77
2022-10-18T03:59:24.463Z,8.78
2022-10-18T04:02:26.287Z,8.91
2022-10-18T04:05:31.008Z,9.08
2022-10-18T04:08:32.788Z,9.21
2022-10-18T04:11:34.609Z,9.00
2022-10-18T04:14:36.359Z,8.84
2022-10-18T04:17:38.226Z,8.73
2022-10-18T04:20:39.976Z,8.70
2022-10-18T04:23:42.194Z,8.70
2022-10-18T04:26:43.966Z,8.67
2022-10-18T04:29:45.805Z,8.77
2022-10-18T04:32:47.587Z,8.73
2022-10-18T04:35:51.600Z,8.76
2022-10-18T04:38:53.309Z,8.71
2022-10-18T04:41:55.043Z,8.65
2022-10-18T04:44:56.844Z,8.62
2022-10-18T04:47:58.628Z,8.65
2022-10-18T04:51:00.469Z,8.68
2022-10-18T04:54:02.273Z,8.80
2022-10-18T04:57:04.273Z,8.75
2022-10-18T05:00:06.769Z,8.84
2022-10-18T05:03:09.416Z,8.85
2022-10-18T05:06:11.461Z,8.85
2022-10-18T05:09:13.294Z,8.81
2022-10-18T05:12:15.174Z,8.90
2022-10-18T05:15:17.000Z,8.79
2022-10-18T05:18:18.787Z,8.83
2022-10-18T05:21:20.785Z,8.88
2022-10-18T05:24:25.433Z,8.96
2022-10-18T05:27:29.906Z,8.91
2022-10-18T05:30:37.983Z,8.95
2022-10-18T05:33:40.011Z,8.89
2022-10-18T05:36:44.745Z,9.03
2022-10-18T05:39:46.663Z,9.05
2022-10-18T05:42:51.907Z,9.21
2022-10-18T05:45:53.557Z,9.24
2022-10-18T05:48:55.417Z,9.26
2022-10-18T05:51:57.246Z,9.39
2022-10-18T05:54:59.022Z,9.64
2022-10-18T05:58:00.875Z,9.86
2022-10-18T06:01:03.131Z,10.02
2022-10-18T06:04:05.585Z,10.18
2022-10-18T06:07:11.296Z,10.37
2022-10-18T06:10:13.301Z,10.30
2022-10-18T06:13:15.050Z,10.53
2022-10-18T06:16:19.618Z,10.86
2022-10-18T06:19:21.725Z,11.08
2022-10-18T06:22:23.535Z,11.21
2022-10-18T06:25:25.301Z,11.33
2022-10-18T06:28:28.022Z,11.36
2022-10-18T06:31:30.007Z,11.59
2022-10-18T06:34:32.277Z,11.83
2022-10-18T06:37:35.816Z,11.90
2022-10-18T06:40:38.406Z,12.07
2022-10-18T06:43:40.272Z,12.15
2022-10-18T06:46:42.356Z,12.34
2022-10-18T06:49:44.063Z,12.56
2022-10-18T06:52:46.048Z,12.61
2022-10-18T06:55:47.802Z,12.65
2022-10-18T06:58:49.643Z,12.84
2022-10-18T07:01:51.441Z,12.84
2022-10-18T07:04:53.509Z,13.03
2022-10-18T07:07:56.482Z,13.16
2022-10-18T07:10:58.465Z,13.29
2022-10-18T07:14:03.525Z,13.28
2022-10-18T07:17:06.038Z,13.36
2022-10-18T07:20:08.229Z,13.43
2022-10-18T07:23:12.120Z,13.59
2022-10-18T07:26:16.951Z,13.67
2022-10-18T07:29:18.854Z,13.79
2022-10-18T07:32:21.474Z,14.04
2022-10-18T07:35:23.330Z,14.10
2022-10-18T07:38:26.067Z,14.15
2022-10-18T07:41:35.358Z,14.31
2022-10-18T07:44:37.586Z,14.28
2022-10-18T07:47:40.115Z,14.46
2022-10-18T07:50:43.046Z,14.74
2022-10-18T07:53:45.571Z,14.78
2022-10-18T07:56:47.795Z,14.91
2022-10-18T07:59:56.298Z,14.95
2022-10-18T08:02:59.704Z,15.03
2022-10-18T08:06:01.652Z,15.11
2022-10-18T08:09:04.887Z,15.06
2022-10-18T08:12:07.055Z,15.21
2022-10-18T08:15:09.368Z,15.23
2022-10-18T08:18:12.072Z,15.29
2022-10-18T08:21:15.768Z,15.38
2022-10-18T08:24:18.091Z,15.43
2022-10-18T08:27:20.810Z,15.56
2022-10-18T08:30:23.873Z,15.60
2022-10-18T08:33:26.066Z,15.65
2022-10-18T08:36:27.893Z,15.75
2022-10-18T08:39:30.683Z,15.92
2022-10-18T08:42:57.723Z,16.03
2022-10-18T08:46:00.089Z,16.16
2022-10-18T08:49:02.724Z,16.11
2022-10-18T08:52:13.429Z,16.02
2022-10-18T08:55:46.203Z,16.28
2022-10-18T08:58:48.215Z,16.18
2022-10-18T09:02:31.561Z,16.33
2022-10-18T09:05:46.504Z,16.59
2022-10-18T09:09:21.075Z,16.37
2022-10-18T09:12:36.869Z,16.56
2022-10-18T09:15:41.429Z,16.69
2022-10-18T09:18:57.838Z,16.63
2022-10-18T09:22:12.220Z,16.78
2022-10-18T09:25:34.059Z,16.89
2022-10-18T09:28:52.011Z,17.03
2022-10-18T09:32:12.391Z,17.06
2022-10-18T09:35:18.968Z,17.26
2022-10-18T09:38:28.843Z,17.20
2022-10-18T09:41:43.729Z,17.09
2022-10-18T09:44:52.349Z,17.16
2022-10-18T09:48:03.717Z,17.17
2022-10-18T09:51:15.321Z,17.63
2022-10-18T09:55:00.453Z,17.58
2022-10-18T09:58:03.606Z,17.44
2022-10-18T10:01:06.623Z,17.40
2022-10-18T10:04:08.562Z,17.45
2022-10-18T10:07:24.203Z,17.45
2022-10-18T10:10:29.531Z,17.64
2022-10-18T10:13:32.607Z,17.82
2022-10-18T10:16:43.756Z,17.89
2022-10-18T10:20:22.064Z,17.95
2022-10-18T10:23:26.707Z,18.09
2022-10-18T10:26:31.516Z,18.00
2022-10-18T10:29:46.131Z,18.26
2022-10-18T10:32:51.468Z,18.34
2022-10-18T10:35:59.464Z,18.36
2022-10-18T10:39:08.021Z,18.38
2022-10-18T10:42:13.594Z,18.30
2022-10-18T10:45:15.880Z,18.42
2022-10-18T10:48:20.738Z,18.38
2022-10-18T10:51:40.305Z,18.66
2022-10-18T10:54:48.989Z,18.61
2022-10-18T10:57:55.820Z,18.53
2022-10-18T11:00:58.154Z,18.76
2022-10-18T11:04:26.406Z,18.73
2022-10-18T11:07:34.271Z,18.86
2022-10-18T11:10:42.802Z,18.95
2022-10-18T11:14:07.407Z,18.83
2022-10-18T11:17:27.853Z,19.02
2022-10-18T11:20:41.312Z,19.05
2022-10-18T11:23:44.228Z,19.11
2022-10-18T11:26:53.729Z,19.30
2022-10-18T11:30:25.185Z,19.44
2022-10-18T11:33:56.281Z,19.41
2022-10-18T11:37:29.122Z,19.48
2022-10-18T11:40:45.754Z,19.57
2022-10-18T11:44:04.556Z,19.63
2022-10-18T11:47:32.899Z,19.37
2022-10-18T11:50:37.975Z,19.72
2022-10-18T11:54:18.098Z,19.65
2022-10-18T11:57:31.382Z,19.51
2022-10-18T12:00:41.378Z,19.86
2022-10-18T12:04:07.625Z,19.78
2022-10-18T12:07:12.596Z,19.99
2022-10-18T12:10:26.173Z,20.22
2022-10-18T12:13:50.011Z,20.16
2022-10-18T12:17:07.613Z,20.18
2022-10-18T12:20:20.744Z,20.31
2022-10-18T12:23:36.069Z,20.43
2022-10-18T12:26:38.797Z,20.41
2022-10-18T12:29:50.296Z,20.47
2022-10-18T12:33:09.975Z,20.55
2022-10-18T12:36:35.517Z,20.47
2022-10-18T12:40:12.498Z,20.63
2022-10-18T12:43:27.414Z,20.54
2022-10-18T12:46:48.848Z,20.50
2022-10-18T12:50:03.369Z,20.46
2022-10-18T12:53:25.284Z,20.62
2022-10-18T12:56:30.769Z,20.65
2022-10-18T12:59:33.144Z,20.48
2022-10-18T13:02:35.345Z,20.33
2022-10-18T13:05:55.024Z,20.46
2022-10-18T13:09:17.433Z,20.58
2022-10-18T13:12:19.284Z,20.58
2022-10-18T13:16:18.905Z,20.70
2022-10-18T13:19:24.114Z,20.58
2022-10-18T13:22:31.961Z,20.60
2022-10-18T13:26:01.473Z,20.69
2022-10-18T13:29:06.673Z,20.63
2022-10-18T13:32:24.418Z,20.64
2022-10-18T13:35:38.497Z,20.68
2022-10-18T13:38:48.561Z,20.61
2022-10-18T13:41:55.110Z,20.46
2022-10-18T13:45:34.006Z,20.34
2022-10-18T13:48:38.850Z,20.23
2022-10-18T13:51:53.441Z,20.42
2022-10-18T13:55:23.331Z,20.17
2022-10-18T13:58:48.927Z,20.17
2022-10-18T14:02:36.456Z,20.14
2022-10-18T14:05:53.715Z,20.01
2022-10-18T14:09:06.215Z,19.92
2022-10-18T14:12:41.934Z,19.90
2022-10-18T14:15:44.659Z,20.05
2022-10-18T14:18:47.899Z,19.97
2022-10-18T14:21:56.574Z,19.94
2022-10-18T14:24:59.384Z,19.76
2022-10-18T14:28:19.867Z,19.73
2022-10-18T14:31:31.207Z,19.80
2022-10-18T14:34:33.184Z,19.72
2022-10-18T14:37:37.255Z,19.71
2022-10-18T14:40:40.824Z,19.54
2022-10-18T14:43:44.034Z,19.47
2022-10-18T14:46:51.912Z,19.33
2022-10-18T14:49:55.258Z,19.19
2022-10-18T14:52:57.601Z,19.04
2022-10-18T14:56:05.297Z,18.95
2022-10-18T14:59:18.423Z,18.75
2022-10-18T15:02:24.658Z,18.59
2022-10-18T15:05:27.857Z,18.37
2022-10-18T15:08:37.451Z,18.40
2022-10-18T15:11:41.522Z,18.38
2022-10-18T15:14:44.523Z,18.14
2022-10-18T15:17:47.188Z,18.16
2022-10-18T15:21:28.323Z,17.96
2022-10-18T15:24:30.146Z,17.88
2022-10-18T15:27:36.091Z,17.57
2022-10-18T15:30:43.101Z,17.28
2022-10-18T15:33:45.389Z,17.24
2022-10-18T15:36:48.599Z,17.06
2022-10-18T15:40:22.578Z,16.86
2022-10-18T15:43:24.664Z,16.74
2022-10-18T15:46:32.986Z,16.61
2022-10-18T15:49:57.970Z,16.54
2022-10-18T15:53:30.438Z,16.32
2022-10-18T15:56:34.891Z,16.26
2022-10-18T15:59:50.261Z,16.05
2022-10-18T16:02:52.774Z,15.97
2022-10-18T16:06:00.724Z,15.80
2022-10-18T16:09:03.018Z,15.74
2022-10-18T16:12:05.841Z,15.77
2022-10-18T16:15:08.760Z,15.44
2022-10-18T16:18:16.330Z,15.32
2022-10-18T16:21:21.694Z,15.27
2022-10-18T16:24:23.952Z,15.25
2022-10-18T16:27:27.045Z,15.28
2022-10-18T16:30:31.759Z,15.28
2022-10-18T16:33:34.152Z,15.25
2022-10-18T16:36:36.389Z,15.09
2022-10-18T16:39:39.120Z,14.87
2022-10-18T16:42:41.227Z,14.78
2022-10-18T16:45:44.131Z,14.68
2022-10-18T16:48:47.193Z,14.71
2022-10-18T16:51:50.408Z,14.87
2022-10-18T16:54:53.174Z,14.89
2022-10-18T16:57:55.725Z,14.55
2022-10-18T17:00:58.701Z,14.51
2022-10-18T17:04:01.687Z,14.34
2022-10-18T17:07:04.920Z,14.31
2022-10-18T17:10:08.041Z,14.37
2022-10-18T17:13:10.707Z,14.28
2022-10-18T17:16:30.326Z,14.35
2022-10-18T17:19:40.970Z,14.25
2022-10-18T17:22:44.343Z,14.12
2022-10-18T17:26:04.679Z,13.96
2022-10-18T17:29:11.380Z,13.75
2022-10-18T17:32:16.097Z,13.70
2022-10-18T17:35:19.568Z,13.69
2022-10-18T17:38:23.250Z,13.48
2022-10-18T17:41:29.970Z,13.44
2022-10-18T17:44:34.512Z,13.45
2022-10-18T17:47:38.903Z,13.45
2022-10-18T17:50:43.226Z,13.45
2022-10-18T17:53:50.801Z,13.45
2022-10-18T17:56:53.830Z,13.48
2022-10-18T17:59:58.815Z,13.47
2022-10-18T18:03:01.755Z,13.40
2022-10-18T18:06:13.970Z,13.40
2022-10-18T18:09:17.206Z,13.45
2022-10-18T18:12:21.889Z,13.32
2022-10-18T18:15:24.739Z,13.15
2022-10-18T18:18:29.240Z,13.26
2022-10-18T18:21:32.421Z,13.23
2022-10-18T18:24:35.885Z,13.29
2022-10-18T18:27:39.557Z,13.31
2022-10-18T18:30:41.890Z,13.38
2022-10-18T18:33:44.887Z,13.37
2022-10-18T18:36:48.533Z,13.39
2022-10-18T18:39:51.098Z,13.37
2022-10-18T18:43:07.346Z,13.44
2022-10-18T18:46:15.845Z,13.38
2022-10-18T18:49:18.463Z,13.41
2022-10-18T18:52:21.078Z,13.30
2022-10-18T18:55:23.043Z,13.37
2022-10-18T18:58:29.029Z,13.42
2022-10-18T19:01:40.898Z,13.39
2022-10-18T19:04:44.427Z,13.41
2022-10-18T19:07:48.486Z,13.47
2022-10-18T19:10:51.231Z,13.48
2022-10-18T19:13:54.666Z,13.57
2022-10-18T19:17:02.949Z,13.54
2022-10-18T19:20:08.114Z,13.53
2022-10-18T19:23:10.556Z,13.59
2022-10-18T19:26:14.548Z,13.64
2022-10-18T19:29:21.092Z,13.67
2022-10-18T19:32:23.392Z,13.58
2022-10-18T19:35:25.805Z,13.63
2022-10-18T19:38:28.206Z,13.60
2022-10-18T19:41:30.401Z,13.52
2022-10-18T19:44:34.099Z,13.41
2022-10-18T19:47:38.547Z,13.38
2022-10-18T19:50:40.723Z,13.34
2022-10-18T19:53:42.989Z,13.45
2022-10-18T19:56:45.075Z,13.53
2022-10-18T19:59:47.380Z,13.45
2022-10-18T20:02:49.530Z,13.40
2022-10-18T20:06:00.168Z,13.50
2022-10-18T20:09:02.463Z,13.41
2022-10-18T20:12:07.678Z,13.48
2022-10-18T20:15:10.354Z,13.52
2022-10-18T20:18:12.626Z,13.49
2022-10-18T20:21:16.975Z,13.46
2022-10-18T20:24:19.066Z,13.38
2022-10-18T20:27:21.097Z,13.54
2022-10-18T20:30:23.221Z,13.51
2022-10-18T20:33:25.294Z,13.50
2022-10-18T20:36:28.571Z,13.46
2022-10-18T20:39:30.997Z,13.44
2022-10-18T20:42:33.030Z,13.28
2022-10-18T20:45:34.878Z,13.32
2022-10-18T20:48:37.258Z,13.46
2022-10-18T20:51:39.198Z,13.58
2022-10-18T20:54:41.423Z,13.60
2022-10-18T20:57:43.749Z,13.58
2022-10-18T21:00:46.210Z,13.63
2022-10-18T21:03:49.617Z,13.67
2022-10-18T21:06:51.500Z,13.68
2022-10-18T21:09:54.036Z,13.77
2022-10-18T21:12:56.033Z,13.79
2022-10-18T21:15:58.818Z,13.86
2022-10-18T21:19:19.387Z,13.80
2022-10-18T21:22:21.301Z,13.77
2022-10-18T21:25:24.621Z,13.72
2022-10-18T21:28:29.758Z,13.67
2022-10-18T21:31:37.213Z,13.65
2022-10-18T21:34:39.089Z,13.67
2022-10-18T21:37:41.153Z,13.76
2022-10-18T21:40:44.723Z,13.80
2022-10-18T21:43:49.462Z,13.88
2022-10-18T21:46:51.396Z,13.82
2022-10-18T21:49:53.438Z,13.70
2022-10-18T21:52:55.873Z,13.49
2022-10-18T21:56:10.353Z,13.45
2022-10-18T21:59:13.278Z,13.56
2022-10-18T22:02:15.268Z,13.61
2022-10-18T22:05:17.424Z,13.63
2022-10-18T22:08:19.468Z,13.58
2022-10-18T22:11:31.434Z,13.60
2022-10-18T22:14:33.397Z,13.50
2022-10-18T22:17:35.539Z,13.54
2022-10-18T22:20:37.868Z,13.49
2022-10-18T22:23:48.332Z,13.33
2022-10-18T22:26:51.228Z,13.26
2022-10-18T22:29:53.649Z,13.26
2022-10-18T22:32:55.558Z,13.19
2022-10-18T22:35:57.312Z,13.31
2022-10-18T22:38:59.521Z,13.08
2022-10-18T22:42:01.484Z,13.06
2022-10-18T22:45:03.415Z,13.16
2022-10-18T22:48:05.754Z,13.03
2022-10-18T22:51:08.198Z,12.92
2022-10-18T22:54:10.106Z,12.78
2022-10-18T22:57:11.919Z,12.79
2022-10-18T23:00:14.218Z,12.78
2022-10-18T23:03:17.147Z,12.70
2022-10-18T23:06:21.845Z,12.57
2022-10-18T23:09:23.960Z,12.59
2022-10-18T23:12:25.730Z,12.48
2022-10-18T23:15:27.690Z,12.44
2022-10-18T23:18:30.480Z,12.30
2022-10-18T23:21:34.404Z,12.35
2022-10-18T23:24:36.125Z,12.37
2022-10-18T23:27:37.855Z,12.53
2022-10-18T23:30:39.887Z,12.59
2022-10-18T23:33:41.839Z,12.65
2022-10-18T23:39:46.733Z,12.56
2022-10-18T23:42:48.794Z,12.52
2022-10-18T23:45:50.857Z,12.53
2022-10-18T23:48:53.099Z,12.45
2022-10-18T23:51:54.863Z,12.49
2022-10-18T23:54:56.741Z,12.57
2022-10-18T23:57:58.847Z,12.60
